Time;durP1;ratioP1;P1;durP2;ratioP2;P2;SDS_P1;SDS_P2;PMS_P1;PMS_P2;Temp;Humidity;BMP_temperature;BMP_pressure;BME280_temperature;BME280_humidity;BME280_pressure;Samples;Min_cycle;Max_cycle;Signal;HPM_P1;HPM_P2
2023/03/22 00:01:39;;;;;;;48.93;35.53;;;;;;;;;;5087557;28;20426;-86
2023/03/22 00:04:05;;;;;;;49.40;34.27;;;;;;;;;;5093687;28;20221;-86
2023/03/22 00:06:31;;;;;;;49.50;34.23;;;;;;;;;;5089762;28;20198;-84
2023/03/22 00:08:57;;;;;;;52.57;35.63;;;;;;;;;;5094099;28;20267;-85
2023/03/22 00:11:24;;;;;;;45.63;33.00;;;;;;;;;;5090918;28;20274;-85
2023/03/22 00:13:53;;;;;;;52.40;36.67;;;;;;;;;;5092078;28;20715;-86
2023/03/22 00:16:21;;;;;;;47.80;33.47;;;;;;;;;;5092478;28;20804;-86
2023/03/22 00:18:47;;;;;;;52.03;34.40;;;;;;;;;;5091308;28;20260;-86
2023/03/22 00:21:14;;;;;;;47.57;34.03;;;;;;;;;;5081029;28;20281;-86
2023/03/22 00:23:41;;;;;;;50.33;35.37;;;;;;;;;;5077811;28;20180;-84
2023/03/22 00:26:09;;;;;;;49.97;34.73;;;;;;;;;;5084099;28;20240;-86
2023/03/22 00:28:36;;;;;;;46.17;33.07;;;;;;;;;;5089376;28;20218;-83
2023/03/22 00:31:02;;;;;;;52.10;34.20;;;;;;;;;;5089783;28;20180;-85
2023/03/22 00:33:29;;;;;;;44.53;32.10;;;;;;;;;;5090398;28;20183;-85
2023/03/22 00:36:00;;;;;;;41.80;30.80;;;;;;;;;;5087117;28;20180;-83
2023/03/22 00:38:32;;;;;;;47.43;33.80;;;;;;;;;;5099192;28;20184;-83
2023/03/22 00:41:21;;;;;;;45.63;32.97;;;;;;;;;;5102239;28;20215;-83
2023/03/22 00:43:47;;;;;;;51.23;35.10;;;;;;;;;;5097107;28;20272;-83
2023/03/22 00:46:15;;;;;;;53.00;36.30;;;;;;;;;;5110663;28;20179;-84
2023/03/22 00:48:41;;;;;;;53.23;38.13;;;;;;;;;;5093527;28;20258;-84
2023/03/22 00:51:09;;;;;;;52.37;35.90;;;;;;;;;;5108283;28;20187;-85
2023/03/22 00:53:35;;;;;;;47.63;34.23;;;;;;;;;;5103446;28;20555;-84
2023/03/22 00:56:03;;;;;;;52.50;38.40;;;;;;;;;;5078286;28;20188;-84
2023/03/22 00:58:30;;;;;;;49.50;34.87;;;;;;;;;;5083510;28;20204;-82
2023/03/22 01:00:56;;;;;;;51.07;35.00;;;;;;;;;;5088370;28;20217;-83
2023/03/22 01:03:23;;;;;;;52.13;36.47;;;;;;;;;;5111101;28;20183;-83
2023/03/22 01:05:51;;;;;;;59.17;39.07;;;;;;;;;;5108324;28;20210;-85
2023/03/22 01:08:31;;;;;;;55.33;38.57;;;;;;;;;;5091704;28;20248;-83
2023/03/22 01:10:57;;;;;;;53.47;36.30;;;;;;;;;;5086940;28;20191;-84
2023/03/22 01:13:24;;;;;;;56.97;38.57;;;;;;;;;;5107979;28;20180;-84
2023/03/22 01:15:50;;;;;;;55.03;39.07;;;;;;;;;;5076513;28;20536;-84
2023/03/22 01:18:18;;;;;;;48.40;35.23;;;;;;;;;;5088645;28;20183;-83
2023/03/22 01:21:06;;;;;;;49.97;35.83;;;;;;;;;;5079489;28;20316;-85
2023/03/22 01:23:32;;;;;;;41.93;31.33;;;;;;;;;;5067201;28;20528;-83
2023/03/22 01:25:58;;;;;;;47.90;33.37;;;;;;;;;;5064687;28;20181;-83
2023/03/22 01:28:24;;;;;;;42.90;30.07;;;;;;;;;;5066474;28;20219;-83
2023/03/22 01:30:51;;;;;;;44.87;31.90;;;;;;;;;;5066498;28;20169;-82
2023/03/22 01:33:19;;;;;;;48.80;35.33;;;;;;;;;;5068206;28;20694;-84
2023/03/22 01:35:47;;;;;;;48.90;34.03;;;;;;;;;;5060119;28;20177;-85
2023/03/22 01:38:19;;;;;;;51.77;36.47;;;;;;;;;;5067110;28;20181;-83
2023/03/22 01:40:47;;;;;;;59.73;37.80;;;;;;;;;;5059117;28;20216;-83
2023/03/22 01:43:14;;;;;;;49.00;34.53;;;;;;;;;;5061442;28;20182;-82
2023/03/22 01:45:41;;;;;;;51.60;35.83;;;;;;;;;;5062771;28;20693;-82
2023/03/22 01:48:16;;;;;;;53.43;35.60;;;;;;;;;;5061084;28;20182;-83
2023/03/22 01:50:45;;;;;;;51.90;34.27;;;;;;;;;;5056125;28;20185;-84
2023/03/22 01:53:13;;;;;;;47.93;34.33;;;;;;;;;;5064375;28;20713;-83
2023/03/22 01:55:40;;;;;;;49.70;35.50;;;;;;;;;;5063596;28;20192;-84
2023/03/22 01:58:07;;;;;;;55.43;38.10;;;;;;;;;;5056127;28;20178;-82
2023/03/22 02:00:34;;;;;;;49.80;35.43;;;;;;;;;;5065340;28;20574;-82
2023/03/22 02:03:00;;;;;;;51.27;34.90;;;;;;;;;;5069334;28;20200;-83
2023/03/22 02:05:27;;;;;;;53.70;36.93;;;;;;;;;;5056681;28;20942;-82
2023/03/22 02:07:54;;;;;;;55.77;37.73;;;;;;;;;;5050827;28;20185;-83
2023/03/22 02:10:26;;;;;;;50.10;36.57;;;;;;;;;;5056353;28;20587;-82
2023/03/22 02:13:11;;;;;;;50.73;35.30;;;;;;;;;;5050105;28;20263;-82
2023/03/22 02:15:47;;;;;;;53.07;36.40;;;;;;;;;;5055017;28;20216;-83
2023/03/22 02:18:25;;;;;;;59.83;38.93;;;;;;;;;;5058982;28;20180;-83
2023/03/22 02:20:51;;;;;;;52.63;37.20;;;;;;;;;;5080356;28;20270;-82
2023/03/22 02:23:18;;;;;;;53.20;36.53;;;;;;;;;;5079384;28;20576;-83
2023/03/22 02:26:03;;;;;;;58.80;38.50;;;;;;;;;;5052726;28;20197;-81
2023/03/22 02:28:35;;;;;;;61.03;41.30;;;;;;;;;;5065512;28;20181;-83
2023/03/22 02:31:07;;;;;;;60.27;39.63;;;;;;;;;;5066441;28;20239;-84
2023/03/22 02:33:41;;;;;;;59.00;40.43;;;;;;;;;;5062526;28;20192;-83
2023/03/22 02:36:13;;;;;;;56.23;38.73;;;;;;;;;;5082088;28;20738;-82
2023/03/22 02:38:53;;;;;;;60.50;39.13;;;;;;;;;;5081608;28;20635;-83
2023/03/22 02:41:25;;;;;;;62.70;41.13;;;;;;;;;;5064687;28;20196;-82
2023/03/22 02:44:03;;;;;;;65.10;43.90;;;;;;;;;;5051571;28;20189;-83
2023/03/22 02:46:43;;;;;;;62.53;42.90;;;;;;;;;;5083192;28;20265;-81
2023/03/22 02:49:09;;;;;;;61.80;42.67;;;;;;;;;;5053328;28;20185;-85
2023/03/22 02:52:01;;;;;;;70.90;43.90;;;;;;;;;;5062243;28;20214;-83
2023/03/22 02:54:34;;;;;;;67.30;44.17;;;;;;;;;;5048095;28;20212;-85
2023/03/22 02:57:13;;;;;;;68.10;43.00;;;;;;;;;;5062740;28;20185;-82
2023/03/22 02:59:41;;;;;;;55.63;40.03;;;;;;;;;;5073806;28;20200;-83
2023/03/22 03:02:10;;;;;;;60.07;41.87;;;;;;;;;;5050561;28;20831;-84
2023/03/22 03:04:39;;;;;;;57.83;40.90;;;;;;;;;;5083462;28;20194;-84
2023/03/22 03:07:11;;;;;;;68.23;43.77;;;;;;;;;;5050141;28;20242;-83
2023/03/22 03:09:40;;;;;;;72.70;45.10;;;;;;;;;;5048804;28;20189;-81
2023/03/22 03:12:09;;;;;;;71.33;45.10;;;;;;;;;;5060474;28;20187;-84
2023/03/22 03:14:35;;;;;;;81.77;48.47;;;;;;;;;;5061056;28;20170;-85
2023/03/22 03:17:10;;;;;;;62.13;42.50;;;;;;;;;;5066136;28;20268;-83
2023/03/22 03:19:45;;;;;;;65.70;44.27;;;;;;;;;;5082565;28;20722;-83
2023/03/22 03:22:26;;;;;;;68.83;43.67;;;;;;;;;;5089298;28;20191;-84
2023/03/22 03:25:18;;;;;;;73.03;47.77;;;;;;;;;;5102831;28;20211;-82
2023/03/22 03:28:08;;;;;;;68.13;44.43;;;;;;;;;;5095907;28;20196;-83
2023/03/22 03:30:39;;;;;;;72.67;46.53;;;;;;;;;;5084773;28;20199;-81
2023/03/22 03:33:12;;;;;;;68.83;45.93;;;;;;;;;;5089946;28;20180;-83
2023/03/22 03:35:45;;;;;;;74.83;47.93;;;;;;;;;;5092100;28;20184;-85
2023/03/22 03:38:17;;;;;;;76.30;49.40;;;;;;;;;;5094216;28;20239;-83
2023/03/22 03:40:55;;;;;;;74.27;47.73;;;;;;;;;;5113065;28;20224;-84
2023/03/22 03:43:21;;;;;;;76.63;50.40;;;;;;;;;;5090382;28;20217;-83
2023/03/22 03:45:48;;;;;;;80.33;52.53;;;;;;;;;;5087720;28;20274;-82
2023/03/22 03:48:28;;;;;;;75.43;50.33;;;;;;;;;;5093485;28;20180;-82
2023/03/22 03:50:55;;;;;;;69.13;46.40;;;;;;;;;;5092833;28;20206;-83
2023/03/22 03:53:21;;;;;;;75.27;46.60;;;;;;;;;;5086985;28;20180;-83
2023/03/22 03:55:47;;;;;;;75.10;48.33;;;;;;;;;;5095841;28;20175;-82
2023/03/22 03:58:15;;;;;;;66.53;45.23;;;;;;;;;;5091600;28;20549;-82
2023/03/22 04:00:41;;;;;;;68.73;45.80;;;;;;;;;;5091090;28;20683;-84
2023/03/22 04:03:08;;;;;;;73.23;47.63;;;;;;;;;;5093663;28;20184;-84
2023/03/22 04:05:35;;;;;;;80.90;49.20;;;;;;;;;;5091513;28;20248;-83
2023/03/22 04:08:01;;;;;;;67.37;45.33;;;;;;;;;;5092612;28;20739;-82
2023/03/22 04:10:28;;;;;;;84.50;50.07;;;;;;;;;;5090189;28;20179;-84
2023/03/22 04:12:55;;;;;;;81.67;49.50;;;;;;;;;;5083674;28;20191;-84
2023/03/22 04:15:21;;;;;;;70.80;45.17;;;;;;;;;;5083478;28;20233;-83
2023/03/22 04:17:47;;;;;;;71.70;47.90;;;;;;;;;;5089004;28;20187;-82
2023/03/22 04:20:14;;;;;;;65.83;45.67;;;;;;;;;;5083198;28;20295;-83
2023/03/22 04:22:40;;;;;;;64.47;41.90;;;;;;;;;;5078614;28;20180;-82
2023/03/22 04:25:11;;;;;;;63.70;41.87;;;;;;;;;;5064094;28;20184;-84
2023/03/22 04:27:38;;;;;;;71.47;43.93;;;;;;;;;;5075443;28;20193;-82
2023/03/22 04:30:06;;;;;;;71.07;45.17;;;;;;;;;;5052412;28;20284;-83
2023/03/22 04:32:32;;;;;;;66.10;43.83;;;;;;;;;;5068835;28;20892;-82
2023/03/22 04:34:59;;;;;;;66.27;44.83;;;;;;;;;;5069747;28;20516;-83
2023/03/22 04:37:30;;;;;;;67.87;43.70;;;;;;;;;;5069453;28;20710;-84
2023/03/22 04:39:57;;;;;;;62.30;42.17;;;;;;;;;;5060168;28;20283;-83
2023/03/22 04:42:24;;;;;;;61.13;41.47;;;;;;;;;;5066685;28;20647;-85
2023/03/22 04:44:50;;;;;;;58.53;40.20;;;;;;;;;;5078393;28;20181;-83
2023/03/22 04:47:17;;;;;;;68.83;43.83;;;;;;;;;;5066961;28;20264;-83
2023/03/22 04:49:43;;;;;;;59.97;40.20;;;;;;;;;;5075694;28;20186;-84
2023/03/22 04:52:10;;;;;;;62.10;40.93;;;;;;;;;;5057992;28;20264;-83
2023/03/22 04:54:37;;;;;;;62.77;42.93;;;;;;;;;;5054175;28;20635;-83
2023/03/22 04:57:03;;;;;;;63.10;43.37;;;;;;;;;;5049636;28;20182;-83
2023/03/22 04:59:29;;;;;;;66.97;44.87;;;;;;;;;;5066286;28;20216;-83
2023/03/22 05:01:55;;;;;;;60.67;41.30;;;;;;;;;;5067454;28;20779;-84
2023/03/22 05:04:22;;;;;;;56.27;39.20;;;;;;;;;;5065848;28;20219;-83
2023/03/22 05:06:48;;;;;;;58.20;38.93;;;;;;;;;;5065112;28;20208;-83
2023/03/22 05:09:18;;;;;;;63.77;41.67;;;;;;;;;;5062111;28;20188;-83
2023/03/22 05:11:47;;;;;;;60.13;40.63;;;;;;;;;;5065729;28;20670;-83
2023/03/22 05:14:14;;;;;;;53.63;37.80;;;;;;;;;;5071401;28;20699;-83
2023/03/22 05:16:40;;;;;;;57.93;39.90;;;;;;;;;;5063311;28;20547;-83
2023/03/22 05:19:12;;;;;;;58.03;39.23;;;;;;;;;;5080845;28;20296;-83
2023/03/22 05:21:39;;;;;;;45.87;34.53;;;;;;;;;;5074063;28;20237;-83
2023/03/22 05:24:05;;;;;;;52.67;37.23;;;;;;;;;;5063197;28;20236;-84
2023/03/22 05:26:31;;;;;;;45.83;34.67;;;;;;;;;;5062327;28;20177;-84
2023/03/22 05:28:57;;;;;;;53.43;36.43;;;;;;;;;;5063533;28;20174;-82
2023/03/22 05:31:23;;;;;;;47.47;34.80;;;;;;;;;;5067866;28;20665;-82
2023/03/22 05:33:50;;;;;;;55.10;37.30;;;;;;;;;;5063582;28;20177;-82
2023/03/22 05:36:18;;;;;;;52.07;35.60;;;;;;;;;;5066079;28;20185;-83
2023/03/22 05:39:14;;;;;;;51.40;35.43;;;;;;;;;;5063922;28;20189;-83
2023/03/22 05:41:40;;;;;;;45.53;32.40;;;;;;;;;;5051125;28;20178;-83
2023/03/22 05:44:07;;;;;;;45.37;31.80;;;;;;;;;;5062627;28;20535;-84
2023/03/22 05:46:33;;;;;;;38.90;29.73;;;;;;;;;;5063099;28;20539;-84
2023/03/22 05:48:59;;;;;;;39.93;30.33;;;;;;;;;;5080141;28;20322;-83
2023/03/22 05:51:26;;;;;;;42.27;31.17;;;;;;;;;;5048707;28;20204;-82
2023/03/22 05:53:53;;;;;;;43.23;32.97;;;;;;;;;;5044396;28;20181;-83
2023/03/22 05:56:23;;;;;;;51.87;34.50;;;;;;;;;;5051300;28;20177;-83
2023/03/22 05:58:50;;;;;;;39.70;30.50;;;;;;;;;;5047756;28;20184;-84
2023/03/22 06:01:16;;;;;;;51.83;34.60;;;;;;;;;;5048640;28;20231;-84
2023/03/22 06:03:42;;;;;;;42.67;32.17;;;;;;;;;;5055124;28;20183;-84
2023/03/22 06:06:12;;;;;;;39.13;30.63;;;;;;;;;;5052715;28;20178;-83
2023/03/22 06:08:39;;;;;;;35.93;27.73;;;;;;;;;;5049191;28;20189;-83
2023/03/22 06:11:08;;;;;;;35.63;27.77;;;;;;;;;;5047825;28;20648;-83
2023/03/22 06:13:34;;;;;;;35.10;26.50;;;;;;;;;;5063152;28;20185;-83
2023/03/22 06:16:01;;;;;;;30.63;25.37;;;;;;;;;;5062151;28;20583;-84
2023/03/22 06:18:27;;;;;;;30.20;23.73;;;;;;;;;;5073353;28;20607;-83
2023/03/22 06:20:53;;;;;;;32.03;25.87;;;;;;;;;;5085457;28;20268;-83
2023/03/22 06:23:20;;;;;;;33.53;25.87;;;;;;;;;;5107502;28;20267;-84
2023/03/22 06:25:46;;;;;;;29.63;23.40;;;;;;;;;;5075726;28;20740;-83
2023/03/22 06:28:12;;;;;;;29.87;23.33;;;;;;;;;;5078250;28;20184;-83
2023/03/22 06:30:39;;;;;;;31.20;21.93;;;;;;;;;;5078606;28;20191;-83
2023/03/22 06:33:05;;;;;;;27.27;21.73;;;;;;;;;;5104704;28;20187;-84
2023/03/22 06:35:32;;;;;;;23.90;19.50;;;;;;;;;;5089289;28;20183;-83
2023/03/22 06:37:58;;;;;;;25.30;20.23;;;;;;;;;;5082187;28;20179;-83
2023/03/22 06:40:24;;;;;;;23.27;18.90;;;;;;;;;;5085165;28;20206;-83
2023/03/22 06:42:51;;;;;;;27.00;21.10;;;;;;;;;;5099333;28;20223;-84
2023/03/22 06:45:17;;;;;;;24.27;20.13;;;;;;;;;;5076106;28;20652;-85
2023/03/22 06:47:43;;;;;;;21.50;18.90;;;;;;;;;;5081206;28;20169;-83
2023/03/22 06:50:10;;;;;;;21.57;17.93;;;;;;;;;;5080117;28;20211;-84
2023/03/22 06:52:36;;;;;;;21.03;16.67;;;;;;;;;;5082489;28;20181;-83
2023/03/22 06:55:03;;;;;;;25.53;17.53;;;;;;;;;;5081332;28;20224;-83
2023/03/22 06:57:29;;;;;;;18.50;16.17;;;;;;;;;;5080546;28;20206;-84
2023/03/22 06:59:55;;;;;;;20.70;16.83;;;;;;;;;;5100419;28;20268;-83
2023/03/22 07:02:21;;;;;;;21.33;17.77;;;;;;;;;;5079935;28;20182;-83
2023/03/22 07:04:50;;;;;;;20.50;16.67;;;;;;;;;;5073766;28;20248;-83
2023/03/22 07:07:21;;;;;;;21.50;17.13;;;;;;;;;;5081476;28;20191;-83
2023/03/22 07:09:50;;;;;;;23.17;16.67;;;;;;;;;;5077357;28;20302;-83
2023/03/22 07:12:20;;;;;;;21.20;17.50;;;;;;;;;;5091013;28;20193;-83
2023/03/22 07:14:47;;;;;;;24.37;18.23;;;;;;;;;;5086509;28;20179;-83
2023/03/22 07:17:15;;;;;;;22.13;18.50;;;;;;;;;;5090436;28;20174;-83
2023/03/22 07:19:45;;;;;;;19.67;16.77;;;;;;;;;;5101239;28;20286;-84
2023/03/22 07:22:13;;;;;;;22.63;17.90;;;;;;;;;;5078325;28;20200;-83
2023/03/22 07:24:40;;;;;;;20.40;17.73;;;;;;;;;;5081505;28;20562;-84
2023/03/22 07:27:06;;;;;;;23.80;18.93;;;;;;;;;;5076534;28;20193;-83
2023/03/22 07:29:33;;;;;;;21.33;16.93;;;;;;;;;;5074349;28;20572;-83
2023/03/22 07:31:59;;;;;;;20.07;17.90;;;;;;;;;;5081119;28;20203;-84
2023/03/22 07:34:26;;;;;;;21.07;18.10;;;;;;;;;;5076631;28;20234;-84
2023/03/22 07:36:55;;;;;;;22.80;18.97;;;;;;;;;;5077611;28;20585;-83
2023/03/22 07:39:28;;;;;;;22.37;19.27;;;;;;;;;;5072681;28;20207;-83
2023/03/22 07:41:55;;;;;;;23.90;19.17;;;;;;;;;;5079154;28;20542;-83
2023/03/22 07:44:22;;;;;;;22.33;17.97;;;;;;;;;;5074665;28;20264;-84
2023/03/22 07:46:50;;;;;;;18.87;16.87;;;;;;;;;;5076642;28;20189;-84
2023/03/22 07:49:16;;;;;;;21.77;17.43;;;;;;;;;;5075009;28;20676;-84
2023/03/22 07:51:42;;;;;;;26.87;17.17;;;;;;;;;;5077984;28;20181;-84
2023/03/22 07:54:08;;;;;;;19.37;16.00;;;;;;;;;;5074130;28;20177;-83
2023/03/22 07:56:34;;;;;;;17.80;15.87;;;;;;;;;;5080842;28;20919;-84
2023/03/22 07:59:01;;;;;;;18.50;16.60;;;;;;;;;;5077813;28;20181;-84
2023/03/22 08:01:27;;;;;;;20.47;16.97;;;;;;;;;;5075488;28;20184;-84
2023/03/22 08:03:53;;;;;;;17.67;15.63;;;;;;;;;;5075230;28;20670;-84
2023/03/22 08:06:20;;;;;;;19.47;15.40;;;;;;;;;;5075512;28;20349;-84
2023/03/22 08:08:46;;;;;;;17.40;15.50;;;;;;;;;;5075110;28;20199;-83
2023/03/22 08:11:13;;;;;;;19.47;16.83;;;;;;;;;;5080322;28;20196;-84
2023/03/22 08:13:39;;;;;;;21.53;16.10;;;;;;;;;;5084902;28;20694;-83
2023/03/22 08:16:05;;;;;;;18.13;15.97;;;;;;;;;;5084652;28;20193;-83
2023/03/22 08:18:32;;;;;;;18.97;16.83;;;;;;;;;;5086817;28;20189;-84
2023/03/22 08:20:59;;;;;;;17.43;15.67;;;;;;;;;;5077938;28;20237;-83
2023/03/22 08:23:33;;;;;;;19.63;16.47;;;;;;;;;;5087503;28;20212;-85
2023/03/22 08:26:09;;;;;;;17.73;15.03;;;;;;;;;;5067108;28;20234;-83
2023/03/22 08:28:36;;;;;;;17.40;15.10;;;;;;;;;;5073837;28;20706;-83
2023/03/22 08:31:15;;;;;;;16.83;15.03;;;;;;;;;;5059304;28;20980;-84
2023/03/22 08:33:41;;;;;;;16.87;15.07;;;;;;;;;;5061294;28;20188;-84
2023/03/22 08:36:09;;;;;;;17.33;15.50;;;;;;;;;;5059793;28;20177;-84
2023/03/22 08:38:35;;;;;;;18.60;16.30;;;;;;;;;;5051170;28;20177;-84
2023/03/22 08:41:05;;;;;;;20.00;15.70;;;;;;;;;;5061319;28;20609;-84
2023/03/22 08:43:31;;;;;;;16.70;14.90;;;;;;;;;;5079221;28;20189;-84
2023/03/22 08:46:03;;;;;;;18.97;15.83;;;;;;;;;;5054013;28;20213;-83
2023/03/22 08:48:36;;;;;;;17.47;15.67;;;;;;;;;;5073851;28;20193;-84
2023/03/22 08:51:03;;;;;;;18.13;16.20;;;;;;;;;;5080549;28;20179;-83
2023/03/22 08:53:34;;;;;;;19.13;16.10;;;;;;;;;;5082704;28;20173;-82
2023/03/22 08:56:01;;;;;;;19.17;15.00;;;;;;;;;;5055692;28;20181;-84
2023/03/22 08:58:35;;;;;;;19.30;16.17;;;;;;;;;;5053202;28;20644;-83
2023/03/22 09:01:01;;;;;;;19.87;16.13;;;;;;;;;;5056277;28;20273;-83
2023/03/22 09:03:28;;;;;;;19.20;16.33;;;;;;;;;;5073064;28;20216;-83
2023/03/22 09:05:59;;;;;;;19.53;15.50;;;;;;;;;;5072669;28;20258;-83
2023/03/22 09:08:30;;;;;;;17.47;15.60;;;;;;;;;;5061762;28;20181;-82
2023/03/22 09:11:04;;;;;;;19.07;16.37;;;;;;;;;;5079553;28;20197;-84
2023/03/22 09:13:34;;;;;;;21.90;16.27;;;;;;;;;;5058387;28;20279;-83
2023/03/22 09:16:00;;;;;;;19.20;16.37;;;;;;;;;;5082662;28;20177;-83
2023/03/22 09:18:29;;;;;;;18.97;16.30;;;;;;;;;;5064331;28;20196;-83
2023/03/22 09:20:55;;;;;;;18.30;16.30;;;;;;;;;;5058007;28;20228;-82
2023/03/22 09:23:24;;;;;;;19.33;16.33;;;;;;;;;;5055604;28;20185;-82
2023/03/22 09:25:59;;;;;;;20.30;16.80;;;;;;;;;;5054306;28;20189;-82
2023/03/22 09:28:26;;;;;;;17.93;15.60;;;;;;;;;;5056093;28;20836;-83
2023/03/22 09:31:05;;;;;;;18.47;16.53;;;;;;;;;;5066267;28;20193;-83
2023/03/22 09:33:31;;;;;;;18.30;16.30;;;;;;;;;;5060734;28;20684;-83
2023/03/22 09:35:58;;;;;;;18.00;16.17;;;;;;;;;;5054258;28;20200;-81
2023/03/22 09:38:26;;;;;;;19.63;15.60;;;;;;;;;;5061538;28;20196;-83
2023/03/22 09:40:59;;;;;;;18.73;16.10;;;;;;;;;;5058666;28;20205;-83
2023/03/22 09:43:27;;;;;;;19.80;17.07;;;;;;;;;;5078744;28;20666;-83
2023/03/22 09:45:53;;;;;;;18.40;16.50;;;;;;;;;;5078410;28;20773;-83
2023/03/22 09:48:27;;;;;;;18.07;16.17;;;;;;;;;;5055813;28;20829;-85
2023/03/22 09:50:55;;;;;;;17.93;16.07;;;;;;;;;;5079762;28;20184;-82
2023/03/22 09:53:23;;;;;;;19.20;17.10;;;;;;;;;;5059401;28;20924;-83
2023/03/22 09:56:09;;;;;;;20.87;16.23;;;;;;;;;;5078392;28;20200;-82
2023/03/22 09:59:11;;;;;;;16.83;15.03;;;;;;;;;;5078301;28;20194;-82
2023/03/22 10:01:52;;;;;;;19.57;16.60;;;;;;;;;;5006227;28;20269;-83
2023/03/22 10:04:25;;;;;;;16.80;15.00;;;;;;;;;;4990238;28;20250;-81
2023/03/22 10:06:58;;;;;;;17.23;14.93;;;;;;;;;;4991672;28;20667;-82
2023/03/22 10:09:33;;;;;;;17.77;15.73;;;;;;;;;;4992040;28;20195;-81
2023/03/22 10:12:03;;;;;;;19.93;15.90;;;;;;;;;;5007854;28;20175;-82
2023/03/22 10:14:39;;;;;;;19.87;15.83;;;;;;;;;;5007645;28;20214;-82
2023/03/22 10:17:10;;;;;;;18.23;15.37;;;;;;;;;;5007662;28;20281;-83
2023/03/22 10:19:50;;;;;;;17.93;15.67;;;;;;;;;;4990883;28;20214;-82
2023/03/22 10:22:18;;;;;;;17.23;15.40;;;;;;;;;;4991097;28;20209;-82
2023/03/22 10:24:45;;;;;;;17.70;14.37;;;;;;;;;;4992184;28;20721;-82
2023/03/22 10:27:15;;;;;;;17.33;15.00;;;;;;;;;;5009401;28;20269;-83
2023/03/22 10:29:53;;;;;;;16.27;14.47;;;;;;;;;;4987701;28;20296;-83
2023/03/22 10:32:29;;;;;;;16.57;14.30;;;;;;;;;;4998407;28;20187;-83
2023/03/22 10:34:56;;;;;;;16.23;14.27;;;;;;;;;;5005449;28;20279;-82
2023/03/22 10:37:25;;;;;;;17.83;13.87;;;;;;;;;;5065257;28;20181;-83
2023/03/22 10:39:53;;;;;;;14.93;13.43;;;;;;;;;;5063682;28;20216;-83
2023/03/22 10:42:21;;;;;;;16.37;14.00;;;;;;;;;;5068070;28;20181;-82
2023/03/22 10:44:52;;;;;;;17.97;13.90;;;;;;;;;;5053537;28;20216;-82
2023/03/22 10:47:26;;;;;;;15.47;13.77;;;;;;;;;;5054974;28;20188;-83
2023/03/22 10:49:54;;;;;;;17.07;14.73;;;;;;;;;;5060073;28;20188;-82
2023/03/22 10:52:26;;;;;;;15.70;13.50;;;;;;;;;;5064893;28;20189;-83
2023/03/22 10:54:54;;;;;;;16.00;14.30;;;;;;;;;;5060692;28;20186;-83
2023/03/22 10:57:20;;;;;;;16.20;13.67;;;;;;;;;;5065036;28;20314;-84
2023/03/22 10:59:51;;;;;;;14.80;13.27;;;;;;;;;;5062975;28;20247;-84
2023/03/22 11:02:21;;;;;;;15.77;13.53;;;;;;;;;;5055678;28;20546;-83
2023/03/22 11:04:49;;;;;;;17.07;14.27;;;;;;;;;;5054325;28;20182;-85
2023/03/22 11:07:25;;;;;;;15.97;14.27;;;;;;;;;;5052898;28;20185;-84
2023/03/22 11:09:57;;;;;;;16.20;13.83;;;;;;;;;;5052443;28;20272;-85
2023/03/22 11:12:23;;;;;;;16.30;14.40;;;;;;;;;;5062930;28;20177;-83
2023/03/22 11:14:50;;;;;;;16.63;14.60;;;;;;;;;;5065649;28;20654;-83
2023/03/22 11:17:22;;;;;;;15.70;13.90;;;;;;;;;;5063004;28;20285;-84
2023/03/22 11:19:52;;;;;;;16.33;14.53;;;;;;;;;;5061275;28;20218;-87
2023/03/22 11:22:19;;;;;;;18.63;13.83;;;;;;;;;;5071911;28;20267;-84
2023/03/22 11:24:46;;;;;;;16.03;14.27;;;;;;;;;;5087092;28;20252;-85
2023/03/22 11:27:21;;;;;;;15.50;13.60;;;;;;;;;;5087513;28;21857;-84
2023/03/22 11:29:56;;;;;;;16.37;13.80;;;;;;;;;;5082779;28;20286;-85
2023/03/22 11:32:42;;;;;;;15.97;13.83;;;;;;;;;;5084364;28;20190;-84
2023/03/22 11:35:11;;;;;;;19.10;13.33;;;;;;;;;;5085816;28;20210;-83
2023/03/22 11:37:45;;;;;;;15.20;13.10;;;;;;;;;;5086198;28;20546;-83
2023/03/22 11:40:16;;;;;;;16.23;13.57;;;;;;;;;;5087776;28;20264;-84
2023/03/22 11:42:42;;;;;;;16.37;13.87;;;;;;;;;;5090698;28;20548;-82
2023/03/22 11:45:13;;;;;;;16.50;14.20;;;;;;;;;;5110599;28;20184;-83
2023/03/22 11:47:39;;;;;;;14.13;12.63;;;;;;;;;;5111515;28;20184;-84
2023/03/22 11:50:07;;;;;;;14.77;13.03;;;;;;;;;;5105082;28;20184;-84
2023/03/22 11:52:33;;;;;;;14.23;12.73;;;;;;;;;;5083842;28;20182;-85
2023/03/22 11:54:59;;;;;;;14.87;12.87;;;;;;;;;;5087903;28;20664;-83
2023/03/22 11:57:27;;;;;;;14.97;12.93;;;;;;;;;;5104266;28;20186;-84
2023/03/22 12:00:07;;;;;;;15.50;13.67;;;;;;;;;;5086001;28;20695;-82
2023/03/22 12:02:53;;;;;;;15.53;12.63;;;;;;;;;;5089690;28;20274;-84
2023/03/22 12:05:27;;;;;;;15.50;12.90;;;;;;;;;;5107092;28;20194;-84
2023/03/22 12:07:59;;;;;;;13.43;11.93;;;;;;;;;;5088754;28;20533;-84
2023/03/22 12:10:30;;;;;;;13.47;11.67;;;;;;;;;;5076659;28;20272;-82
2023/03/22 12:13:20;;;;;;;15.10;12.07;;;;;;;;;;5093761;28;20184;-83
2023/03/22 12:15:48;;;;;;;13.60;11.70;;;;;;;;;;5084305;28;20264;-83
2023/03/22 12:18:17;;;;;;;13.57;11.63;;;;;;;;;;5090448;28;20875;-83
2023/03/22 12:20:48;;;;;;;14.23;11.50;;;;;;;;;;5107848;28;20236;-83
2023/03/22 12:23:17;;;;;;;13.03;11.03;;;;;;;;;;5088792;28;20188;-83
2023/03/22 12:25:59;;;;;;;13.80;12.23;;;;;;;;;;5087799;28;20289;-83
2023/03/22 12:28:45;;;;;;;13.67;11.83;;;;;;;;;;5107001;28;20188;-82
2023/03/22 12:31:17;;;;;;;13.57;11.70;;;;;;;;;;5085294;28;20552;-83
2023/03/22 12:33:45;;;;;;;14.93;12.50;;;;;;;;;;5087069;28;21084;-83
2023/03/22 12:36:15;;;;;;;15.63;12.63;;;;;;;;;;5108254;28;20168;-82
2023/03/22 12:38:47;;;;;;;16.03;12.83;;;;;;;;;;5089523;28;20219;-83
2023/03/22 12:41:35;;;;;;;14.90;12.13;;;;;;;;;;5086959;28;20629;-83
2023/03/22 12:44:04;;;;;;;14.33;12.83;;;;;;;;;;5088132;28;20763;-83
2023/03/22 12:46:35;;;;;;;14.40;12.90;;;;;;;;;;5089772;28;20179;-83
2023/03/22 12:49:21;;;;;;;14.03;12.53;;;;;;;;;;5090810;28;20195;-82
2023/03/22 12:51:48;;;;;;;14.67;13.00;;;;;;;;;;5047182;28;20182;-83
2023/03/22 12:54:14;;;;;;;16.47;12.73;;;;;;;;;;5046229;28;20267;-82
2023/03/22 12:56:42;;;;;;;13.43;12.03;;;;;;;;;;5030057;28;20268;-82
2023/03/22 12:59:13;;;;;;;14.83;13.17;;;;;;;;;;5036464;28;20185;-83
2023/03/22 13:01:45;;;;;;;17.47;14.00;;;;;;;;;;5031013;28;20249;-83
2023/03/22 13:04:26;;;;;;;15.50;13.00;;;;;;;;;;5046033;28;20233;-85
2023/03/22 13:06:52;;;;;;;14.97;12.97;;;;;;;;;;5032047;28;20648;-84
2023/03/22 13:09:18;;;;;;;14.73;12.60;;;;;;;;;;5044232;28;20205;-82
2023/03/22 13:12:03;;;;;;;13.53;11.83;;;;;;;;;;5023154;28;20584;-82
2023/03/22 13:14:47;;;;;;;14.80;12.17;;;;;;;;;;5028924;28;20196;-82
2023/03/22 13:17:14;;;;;;;14.20;12.37;;;;;;;;;;5033753;28;20935;-82
2023/03/22 13:19:51;;;;;;;15.33;12.60;;;;;;;;;;5045220;28;20347;-83
2023/03/22 13:22:23;;;;;;;12.87;11.57;;;;;;;;;;5036950;28;20201;-83
2023/03/22 13:25:07;;;;;;;12.63;11.40;;;;;;;;;;5043037;28;20202;-82
2023/03/22 13:27:37;;;;;;;16.10;11.97;;;;;;;;;;5042774;28;20229;-82
2023/03/22 13:30:15;;;;;;;12.40;11.00;;;;;;;;;;5077661;28;20196;-82
2023/03/22 13:32:49;;;;;;;13.63;12.23;;;;;;;;;;5088888;28;20179;-83
2023/03/22 13:35:42;;;;;;;13.60;11.37;;;;;;;;;;5103133;28;20278;-83
2023/03/22 13:38:09;;;;;;;12.80;11.23;;;;;;;;;;4989058;28;20195;-83
2023/03/22 13:40:38;;;;;;;14.03;11.57;;;;;;;;;;4993580;28;20756;-83
2023/03/22 13:43:21;;;;;;;11.90;10.70;;;;;;;;;;4989415;28;20217;-82
2023/03/22 13:46:00;;;;;;;12.90;11.00;;;;;;;;;;4995259;28;20179;-81
2023/03/22 13:48:39;;;;;;;12.20;10.90;;;;;;;;;;4990930;28;20218;-83
2023/03/22 13:51:18;;;;;;;13.07;11.67;;;;;;;;;;4989899;28;20186;-81
2023/03/22 13:53:54;;;;;;;12.43;10.97;;;;;;;;;;5002701;28;20194;-82
2023/03/22 13:56:46;;;;;;;13.17;10.83;;;;;;;;;;4988919;28;20625;-82
2023/03/22 13:59:28;;;;;;;13.93;11.53;;;;;;;;;;5006698;28;20194;-83
2023/03/22 14:02:10;;;;;;;12.90;11.20;;;;;;;;;;4989266;28;20350;-82
2023/03/22 14:04:45;;;;;;;12.70;11.40;;;;;;;;;;5005949;28;20645;-82
2023/03/22 14:07:22;;;;;;;14.20;12.40;;;;;;;;;;4987686;28;20672;-83
2023/03/22 14:09:50;;;;;;;14.77;11.63;;;;;;;;;;4987727;28;20191;-82
2023/03/22 14:12:16;;;;;;;12.20;10.97;;;;;;;;;;5006140;28;20187;-81
2023/03/22 14:14:45;;;;;;;13.20;11.80;;;;;;;;;;5045403;28;20253;-82
2023/03/22 14:17:24;;;;;;;15.27;12.43;;;;;;;;;;5084298;28;20195;-83
2023/03/22 14:19:51;;;;;;;15.50;12.43;;;;;;;;;;5086982;28;20206;-83
2023/03/22 14:22:27;;;;;;;14.13;12.63;;;;;;;;;;5083055;28;20176;-83
2023/03/22 14:24:55;;;;;;;14.73;12.57;;;;;;;;;;5087300;28;20179;-82
2023/03/22 14:27:21;;;;;;;13.60;12.17;;;;;;;;;;5106183;28;20234;-83
2023/03/22 14:29:48;;;;;;;12.73;11.40;;;;;;;;;;5080409;28;20700;-83
2023/03/22 14:32:19;;;;;;;13.13;11.63;;;;;;;;;;5076255;28;20206;-80
2023/03/22 14:34:48;;;;;;;14.63;11.90;;;;;;;;;;5077425;28;20192;-82